sensor_id;sensor_type;location;lat;lon;timestamp;pressure;altitude;pressure_sealevel;temperature
39959;BMP280;25639;53.634;9.880;2023-03-14T00:01:57;151798.69;;;-2.30
39959;BMP280;25639;53.634;9.880;2023-03-14T00:04:23;151778.44;;;-2.38
39959;BMP280;25639;53.634;9.880;2023-03-14T00:06:48;151767.09;;;-2.43
39959;BMP280;25639;53.634;9.880;2023-03-14T00:09:15;151768.34;;;-2.42
39959;BMP280;25639;53.634;9.880;2023-03-14T00:11:40;151762.06;;;-2.45
39959;BMP280;25639;53.634;9.880;2023-03-14T00:14:05;151758.25;;;-2.46
39959;BMP280;25639;53.634;9.880;2023-03-14T00:16:31;151745.63;;;-2.52
39959;BMP280;25639;53.634;9.880;2023-03-14T00:18:58;151727.94;;;-2.59
39959;BMP280;25639;53.634;9.880;2023-03-14T00:21:24;151710.25;;;-2.66
39959;BMP280;25639;53.634;9.880;2023-03-14T00:23:49;151722.88;;;-2.61
39959;BMP280;25639;53.634;9.880;2023-03-14T00:26:17;151720.34;;;-2.62
39959;BMP280;25639;53.634;9.880;2023-03-14T00:28:43;151741.81;;;-2.53
39959;BMP280;25639;53.634;9.880;2023-03-14T00:31:10;151749.41;;;-2.50
39959;BMP280;25639;53.634;9.880;2023-03-14T00:33:36;151756.97;;;-2.47
39959;BMP280;25639;53.634;9.880;2023-03-14T00:36:07;151756.97;;;-2.47
39959;BMP280;25639;53.634;9.880;2023-03-14T00:38:37;151750.66;;;-2.50
39959;BMP280;25639;53.634;9.880;2023-03-14T00:41:05;151745.63;;;-2.52
39959;BMP280;25639;53.634;9.880;2023-03-14T00:43:30;151781.00;;;-2.37
39959;BMP280;25639;53.634;9.880;2023-03-14T00:45:56;151772.16;;;-2.41
39959;BMP280;25639;53.634;9.880;2023-03-14T00:48:22;151773.41;;;-2.40
39959;BMP280;25639;53.634;9.880;2023-03-14T00:50:47;151765.81;;;-2.43
39959;BMP280;25639;53.634;9.880;2023-03-14T00:53:13;151779.75;;;-2.38
39959;BMP280;25639;53.634;9.880;2023-03-14T00:55:40;151781.00;;;-2.37
39959;BMP280;25639;53.634;9.880;2023-03-14T00:58:07;151768.34;;;-2.42
39959;BMP280;25639;53.634;9.880;2023-03-14T01:00:32;151767.09;;;-2.43
39959;BMP280;25639;53.634;9.880;2023-03-14T01:02:58;151789.84;;;-2.34
39959;BMP280;25639;53.634;9.880;2023-03-14T01:05:23;151777.19;;;-2.39
39959;BMP280;25639;53.634;9.880;2023-03-14T01:07:49;151791.09;;;-2.33
39959;BMP280;25639;53.634;9.880;2023-03-14T01:10:14;151788.59;;;-2.34
39959;BMP280;25639;53.634;9.880;2023-03-14T01:12:40;151818.88;;;-2.22
39959;BMP280;25639;53.634;9.880;2023-03-14T01:15:05;151813.81;;;-2.24
39959;BMP280;25639;53.634;9.880;2023-03-14T01:17:31;151826.47;;;-2.19
39959;BMP280;25639;53.634;9.880;2023-03-14T01:19:56;151832.81;;;-2.16
39959;BMP280;25639;53.634;9.880;2023-03-14T01:22:25;151830.25;;;-2.17
39959;BMP280;25639;53.634;9.880;2023-03-14T01:24:50;151851.75;;;-2.08
39959;BMP280;25639;53.634;9.880;2023-03-14T01:27:16;151859.34;;;-2.05
39959;BMP280;25639;53.634;9.880;2023-03-14T01:29:41;151850.50;;;-2.09
39959;BMP280;25639;53.634;9.880;2023-03-14T01:32:06;151846.72;;;-2.11
39959;BMP280;25639;53.634;9.880;2023-03-14T01:34:32;151844.16;;;-2.12
39959;BMP280;25639;53.634;9.880;2023-03-14T01:36:57;151849.19;;;-2.09
39959;BMP280;25639;53.634;9.880;2023-03-14T01:39:22;151859.34;;;-2.05
39959;BMP280;25639;53.634;9.880;2023-03-14T01:41:48;151861.84;;;-2.04
39959;BMP280;25639;53.634;9.880;2023-03-14T01:44:13;151826.47;;;-2.19
39959;BMP280;25639;53.634;9.880;2023-03-14T01:46:41;151847.94;;;-2.10
39959;BMP280;25639;53.634;9.880;2023-03-14T01:54:21;151801.19;;;-2.29
39959;BMP280;25639;53.634;9.880;2023-03-14T01:56:54;151786.03;;;-2.35
39959;BMP280;25639;53.634;9.880;2023-03-14T01:59:21;151779.75;;;-2.38
39959;BMP280;25639;53.634;9.880;2023-03-14T02:01:47;151765.81;;;-2.43
39959;BMP280;25639;53.634;9.880;2023-03-14T02:04:16;151774.66;;;-2.40
39959;BMP280;25639;53.634;9.880;2023-03-14T02:09:26;151775.94;;;-2.39
39959;BMP280;25639;53.634;9.880;2023-03-14T02:11:51;151801.19;;;-2.29
39959;BMP280;25639;53.634;9.880;2023-03-14T02:14:35;151791.09;;;-2.33
39959;BMP280;25639;53.634;9.880;2023-03-14T02:17:02;151778.44;;;-2.38
39959;BMP280;25639;53.634;9.880;2023-03-14T02:22:10;151748.13;;;-2.51
39959;BMP280;25639;53.634;9.880;2023-03-14T02:25:11;151721.59;;;-2.61
39959;BMP280;25639;53.634;9.880;2023-03-14T02:27:39;151711.50;;;-2.65
39959;BMP280;25639;53.634;9.880;2023-03-14T02:30:14;151711.50;;;-2.65
39959;BMP280;25639;53.634;9.880;2023-03-14T02:32:44;151708.94;;;-2.66
39959;BMP280;25639;53.634;9.880;2023-03-14T02:35:15;151697.59;;;-2.71
39959;BMP280;25639;53.634;9.880;2023-03-14T02:37:50;151686.22;;;-2.76
39959;BMP280;25639;53.634;9.880;2023-03-14T02:40:17;151674.88;;;-2.80
39959;BMP280;25639;53.634;9.880;2023-03-14T02:42:42;151677.38;;;-2.79
39959;BMP280;25639;53.634;9.880;2023-03-14T02:47:33;151693.81;;;-2.73
39959;BMP280;25639;53.634;9.880;2023-03-14T02:50:05;151710.25;;;-2.66
39959;BMP280;25639;53.634;9.880;2023-03-14T02:52:31;151719.09;;;-2.62
39959;BMP280;25639;53.634;9.880;2023-03-14T02:54:57;151726.69;;;-2.59
39959;BMP280;25639;53.634;9.880;2023-03-14T02:57:22;151725.38;;;-2.60
39959;BMP280;25639;53.634;9.880;2023-03-14T02:59:47;151734.22;;;-2.56
39959;BMP280;25639;53.634;9.880;2023-03-14T03:02:13;151744.38;;;-2.52
39959;BMP280;25639;53.634;9.880;2023-03-14T03:04:38;151753.22;;;-2.48
39959;BMP280;25639;53.634;9.880;2023-03-14T03:07:03;151765.81;;;-2.43
39959;BMP280;25639;53.634;9.880;2023-03-14T03:09:28;151765.81;;;-2.43
39959;BMP280;25639;53.634;9.880;2023-03-14T03:11:54;151775.94;;;-2.39
39959;BMP280;25639;53.634;9.880;2023-03-14T03:14:19;151801.19;;;-2.29
39959;BMP280;25639;53.634;9.880;2023-03-14T03:16:44;151804.97;;;-2.27
39959;BMP280;25639;53.634;9.880;2023-03-14T03:19:10;151798.69;;;-2.30
39959;BMP280;25639;53.634;9.880;2023-03-14T03:21:35;151808.78;;;-2.26
39959;BMP280;25639;53.634;9.880;2023-03-14T03:24:01;151825.22;;;-2.19
39959;BMP280;25639;53.634;9.880;2023-03-14T03:26:27;151837.84;;;-2.14
39959;BMP280;25639;53.634;9.880;2023-03-14T03:29:23;151830.25;;;-2.17
39959;BMP280;25639;53.634;9.880;2023-03-14T03:31:49;151853.00;;;-2.08
39959;BMP280;25639;53.634;9.880;2023-03-14T03:34:14;151847.94;;;-2.10
39959;BMP280;25639;53.634;9.880;2023-03-14T03:36:40;151849.19;;;-2.09
39959;BMP280;25639;53.634;9.880;2023-03-14T03:39:06;151865.66;;;-2.03
39959;BMP280;25639;53.634;9.880;2023-03-14T03:41:31;151868.19;;;-2.02
39959;BMP280;25639;53.634;9.880;2023-03-14T03:43:57;151869.44;;;-2.01
39959;BMP280;25639;53.634;9.880;2023-03-14T03:46:23;151865.66;;;-2.03
39959;BMP280;25639;53.634;9.880;2023-03-14T03:48:59;151861.84;;;-2.04
39959;BMP280;25639;53.634;9.880;2023-03-14T03:51:34;151846.72;;;-2.11
39959;BMP280;25639;53.634;9.880;2023-03-14T03:53:59;151869.44;;;-2.01
39959;BMP280;25639;53.634;9.880;2023-03-14T03:56:29;151850.50;;;-2.09
39959;BMP280;25639;53.634;9.880;2023-03-14T03:58:56;151847.94;;;-2.10
39959;BMP280;25639;53.634;9.880;2023-03-14T04:01:22;151851.75;;;-2.08
39959;BMP280;25639;53.634;9.880;2023-03-14T04:03:47;151849.19;;;-2.09
39959;BMP280;25639;53.634;9.880;2023-03-14T04:06:13;151861.84;;;-2.04
39959;BMP280;25639;53.634;9.880;2023-03-14T04:08:39;151875.75;;;-1.99
39959;BMP280;25639;53.634;9.880;2023-03-14T04:11:05;151874.50;;;-1.99
39959;BMP280;25639;53.634;9.880;2023-03-14T04:13:31;151878.28;;;-1.98
39959;BMP280;25639;53.634;9.880;2023-03-14T04:15:56;151877.03;;;-1.98
39959;BMP280;25639;53.634;9.880;2023-03-14T04:18:22;151873.25;;;-2.00
39959;BMP280;25639;53.634;9.880;2023-03-14T04:20:54;151877.03;;;-1.98
39959;BMP280;25639;53.634;9.880;2023-03-14T04:23:21;151877.03;;;-1.98
39959;BMP280;25639;53.634;9.880;2023-03-14T04:25:57;151890.94;;;-1.93
39959;BMP280;25639;53.634;9.880;2023-03-14T04:28:23;151879.53;;;-1.97
39959;BMP280;25639;53.634;9.880;2023-03-14T04:30:51;151878.28;;;-1.98
39959;BMP280;25639;53.634;9.880;2023-03-14T04:33:16;151892.19;;;-1.92
39959;BMP280;25639;53.634;9.880;2023-03-14T04:35:43;151892.19;;;-1.92
39959;BMP280;25639;53.634;9.880;2023-03-14T04:38:09;151887.13;;;-1.94
39959;BMP280;25639;53.634;9.880;2023-03-14T04:40:41;151801.19;;;-2.29
39959;BMP280;25639;53.634;9.880;2023-03-14T04:43:08;151738.03;;;-2.55
39959;BMP280;25639;53.634;9.880;2023-03-14T04:45:35;151714.03;;;-2.64
39959;BMP280;25639;53.634;9.880;2023-03-14T04:48:00;151684.97;;;-2.76
39959;BMP280;25639;53.634;9.880;2023-03-14T04:50:26;151649.59;;;-2.91
39959;BMP280;25639;53.634;9.880;2023-03-14T04:52:51;151643.31;;;-2.93
39959;BMP280;25639;53.634;9.880;2023-03-14T04:55:16;151616.78;;;-3.04
39959;BMP280;25639;53.634;9.880;2023-03-14T04:57:42;151595.31;;;-3.13
39959;BMP280;25639;53.634;9.880;2023-03-14T05:00:08;151566.25;;;-3.24
39959;BMP280;25639;53.634;9.880;2023-03-14T05:02:34;151553.63;;;-3.30
39959;BMP280;25639;53.634;9.880;2023-03-14T05:04:59;151541.00;;;-3.35
39959;BMP280;25639;53.634;9.880;2023-03-14T05:07:25;151551.13;;;-3.31
39959;BMP280;25639;53.634;9.880;2023-03-14T05:09:50;151527.13;;;-3.40
39959;BMP280;25639;53.634;9.880;2023-03-14T05:12:16;151520.81;;;-3.43
39959;BMP280;25639;53.634;9.880;2023-03-14T05:14:41;151515.78;;;-3.45
39959;BMP280;25639;53.634;9.880;2023-03-14T05:17:06;151534.69;;;-3.37
39959;BMP280;25639;53.634;9.880;2023-03-14T05:19:32;151501.84;;;-3.51
39959;BMP280;25639;53.634;9.880;2023-03-14T05:21:57;151503.16;;;-3.50
39959;BMP280;25639;53.634;9.880;2023-03-14T05:24:23;151480.44;;;-3.59
39959;BMP280;25639;53.634;9.880;2023-03-14T05:26:48;151475.34;;;-3.61
39959;BMP280;25639;53.634;9.880;2023-03-14T05:29:14;151484.19;;;-3.58
39959;BMP280;25639;53.634;9.880;2023-03-14T05:31:39;151475.34;;;-3.61
39959;BMP280;25639;53.634;9.880;2023-03-14T05:34:04;151467.81;;;-3.65
39959;BMP280;25639;53.634;9.880;2023-03-14T05:36:29;151467.81;;;-3.65
39959;BMP280;25639;53.634;9.880;2023-03-14T05:38:55;151490.50;;;-3.55
39959;BMP280;25639;53.634;9.880;2023-03-14T05:41:23;151467.81;;;-3.65
39959;BMP280;25639;53.634;9.880;2023-03-14T05:43:48;151466.50;;;-3.65
39959;BMP280;25639;53.634;9.880;2023-03-14T05:46:13;151474.09;;;-3.62
39959;BMP280;25639;53.634;9.880;2023-03-14T05:48:39;151486.72;;;-3.57
39959;BMP280;25639;53.634;9.880;2023-03-14T05:51:04;151461.47;;;-3.67
39959;BMP280;25639;53.634;9.880;2023-03-14T05:53:30;151479.13;;;-3.60
39959;BMP280;25639;53.634;9.880;2023-03-14T05:55:55;151476.63;;;-3.61
39959;BMP280;25639;53.634;9.880;2023-03-14T05:58:21;151469.06;;;-3.64
39959;BMP280;25639;53.634;9.880;2023-03-14T06:00:46;151477.88;;;-3.60
39959;BMP280;25639;53.634;9.880;2023-03-14T06:03:12;151456.41;;;-3.69
39959;BMP280;25639;53.634;9.880;2023-03-14T06:05:37;151466.50;;;-3.65
39959;BMP280;25639;53.634;9.880;2023-03-14T06:08:03;151472.84;;;-3.62
39959;BMP280;25639;53.634;9.880;2023-03-14T06:10:28;151487.97;;;-3.56
39959;BMP280;25639;53.634;9.880;2023-03-14T06:12:53;151498.09;;;-3.52
39959;BMP280;25639;53.634;9.880;2023-03-14T06:15:19;151511.97;;;-3.47
39959;BMP280;25639;53.634;9.880;2023-03-14T06:17:44;151511.97;;;-3.47
39959;BMP280;25639;53.634;9.880;2023-03-14T06:20:10;151532.16;;;-3.38
39959;BMP280;25639;53.634;9.880;2023-03-14T06:22:36;151528.34;;;-3.40
39959;BMP280;25639;53.634;9.880;2023-03-14T06:25:01;151534.69;;;-3.37
39959;BMP280;25639;53.634;9.880;2023-03-14T06:27:26;151519.53;;;-3.43
39959;BMP280;25639;53.634;9.880;2023-03-14T06:29:52;151527.13;;;-3.40
39959;BMP280;25639;53.634;9.880;2023-03-14T06:32:17;151546.03;;;-3.33
39959;BMP280;25639;53.634;9.880;2023-03-14T06:34:43;151541.00;;;-3.35
39959;BMP280;25639;53.634;9.880;2023-03-14T06:37:08;151556.16;;;-3.29
39959;BMP280;25639;53.634;9.880;2023-03-14T06:39:34;151568.81;;;-3.23
39959;BMP280;25639;53.634;9.880;2023-03-14T06:41:59;151548.56;;;-3.32
39959;BMP280;25639;53.634;9.880;2023-03-14T06:44:24;151548.56;;;-3.32
39959;BMP280;25639;53.634;9.880;2023-03-14T06:46:50;151551.13;;;-3.31
39959;BMP280;25639;53.634;9.880;2023-03-14T06:49:15;151544.78;;;-3.33
39959;BMP280;25639;53.634;9.880;2023-03-14T06:51:40;151539.75;;;-3.35
39959;BMP280;25639;53.634;9.880;2023-03-14T06:54:05;151565.00;;;-3.25
39959;BMP280;25639;53.634;9.880;2023-03-14T06:56:31;151577.63;;;-3.20
39959;BMP280;25639;53.634;9.880;2023-03-14T06:58:56;151576.34;;;-3.20
39959;BMP280;25639;53.634;9.880;2023-03-14T07:01:25;151570.06;;;-3.23
39959;BMP280;25639;53.634;9.880;2023-03-14T07:03:50;151575.09;;;-3.21
39959;BMP280;25639;53.634;9.880;2023-03-14T07:06:16;151568.81;;;-3.23
39959;BMP280;25639;53.634;9.880;2023-03-14T07:08:41;151570.06;;;-3.23
39959;BMP280;25639;53.634;9.880;2023-03-14T07:11:07;151585.19;;;-3.17
39959;BMP280;25639;53.634;9.880;2023-03-14T07:13:32;151582.69;;;-3.18
39959;BMP280;25639;53.634;9.880;2023-03-14T07:15:58;151582.69;;;-3.18
39959;BMP280;25639;53.634;9.880;2023-03-14T07:18:23;151567.50;;;-3.24
39959;BMP280;25639;53.634;9.880;2023-03-14T07:20:50;151578.88;;;-3.19
39959;BMP280;25639;53.634;9.880;2023-03-14T07:23:15;151582.69;;;-3.18
39959;BMP280;25639;53.634;9.880;2023-03-14T07:25:40;151599.09;;;-3.11
39959;BMP280;25639;53.634;9.880;2023-03-14T07:28:05;151600.34;;;-3.11
39959;BMP280;25639;53.634;9.880;2023-03-14T07:30:31;151616.78;;;-3.04
39959;BMP280;25639;53.634;9.880;2023-03-14T07:32:56;151607.94;;;-3.08
39959;BMP280;25639;53.634;9.880;2023-03-14T07:35:21;151621.84;;;-3.02
39959;BMP280;25639;53.634;9.880;2023-03-14T07:37:46;151639.50;;;-2.95
39959;BMP280;25639;53.634;9.880;2023-03-14T07:40:12;151631.94;;;-2.98
39959;BMP280;25639;53.634;9.880;2023-03-14T07:42:41;151626.88;;;-3.00
39959;BMP280;25639;53.634;9.880;2023-03-14T07:45:07;151586.47;;;-3.16
39959;BMP280;25639;53.634;9.880;2023-03-14T07:47:32;151585.19;;;-3.17
39959;BMP280;25639;53.634;9.880;2023-03-14T07:49:57;151606.66;;;-3.08
39959;BMP280;25639;53.634;9.880;2023-03-14T07:52:23;151606.66;;;-3.08
39959;BMP280;25639;53.634;9.880;2023-03-14T07:54:49;151613.00;;;-3.05
39959;BMP280;25639;53.634;9.880;2023-03-14T07:57:14;151605.41;;;-3.09
39959;BMP280;25639;53.634;9.880;2023-03-14T07:59:39;151624.34;;;-3.01
39959;BMP280;25639;53.634;9.880;2023-03-14T08:02:04;151639.50;;;-2.95
39959;BMP280;25639;53.634;9.880;2023-03-14T08:04:34;151659.69;;;-2.87
39959;BMP280;25639;53.634;9.880;2023-03-14T08:06:59;151691.25;;;-2.74
39959;BMP280;25639;53.634;9.880;2023-03-14T08:09:25;151705.19;;;-2.68
39959;BMP280;25639;53.634;9.880;2023-03-14T08:11:50;151692.56;;;-2.73
39959;BMP280;25639;53.634;9.880;2023-03-14T08:14:15;151720.34;;;-2.62
39959;BMP280;25639;53.634;9.880;2023-03-14T08:16:41;151719.09;;;-2.62
39959;BMP280;25639;53.634;9.880;2023-03-14T08:19:06;151705.19;;;-2.68
39959;BMP280;25639;53.634;9.880;2023-03-14T08:21:31;151688.75;;;-2.75
39959;BMP280;25639;53.634;9.880;2023-03-14T08:23:56;151717.84;;;-2.63
39959;BMP280;25639;53.634;9.880;2023-03-14T08:26:22;151729.19;;;-2.58
39959;BMP280;25639;53.634;9.880;2023-03-14T08:28:47;151715.28;;;-2.64
39959;BMP280;25639;53.634;9.880;2023-03-14T08:31:12;151750.66;;;-2.50
39959;BMP280;25639;53.634;9.880;2023-03-14T08:33:38;151762.06;;;-2.45
39959;BMP280;25639;53.634;9.880;2023-03-14T08:36:03;151768.34;;;-2.42
39959;BMP280;25639;53.634;9.880;2023-03-14T08:38:28;151760.75;;;-2.45
39959;BMP280;25639;53.634;9.880;2023-03-14T08:41:01;151758.25;;;-2.46
39959;BMP280;25639;53.634;9.880;2023-03-14T08:43:28;151769.59;;;-2.42
39959;BMP280;25639;53.634;9.880;2023-03-14T08:45:59;151760.75;;;-2.45
39959;BMP280;25639;53.634;9.880;2023-03-14T08:48:25;151732.97;;;-2.57
39959;BMP280;25639;53.634;9.880;2023-03-14T08:50:50;151730.44;;;-2.58
39959;BMP280;25639;53.634;9.880;2023-03-14T08:53:15;151744.38;;;-2.52
39959;BMP280;25639;53.634;9.880;2023-03-14T08:55:41;151721.59;;;-2.61
39959;BMP280;25639;53.634;9.880;2023-03-14T08:58:06;151696.34;;;-2.72
39959;BMP280;25639;53.634;9.880;2023-03-14T09:00:31;151696.34;;;-2.72
39959;BMP280;25639;53.634;9.880;2023-03-14T09:02:56;151695.06;;;-2.72
39959;BMP280;25639;53.634;9.880;2023-03-14T09:05:22;151715.28;;;-2.64
39959;BMP280;25639;53.634;9.880;2023-03-14T09:07:47;151740.56;;;-2.54
39959;BMP280;25639;53.634;9.880;2023-03-14T09:10:12;151721.59;;;-2.61
39959;BMP280;25639;53.634;9.880;2023-03-14T09:12:38;151721.59;;;-2.61
39959;BMP280;25639;53.634;9.880;2023-03-14T09:15:04;151710.25;;;-2.66
39959;BMP280;25639;53.634;9.880;2023-03-14T09:17:29;151691.25;;;-2.74
39959;BMP280;25639;53.634;9.880;2023-03-14T09:19:55;151712.75;;;-2.65
39959;BMP280;25639;53.634;9.880;2023-03-14T09:22:20;151730.44;;;-2.58
39959;BMP280;25639;53.634;9.880;2023-03-14T09:24:46;151748.13;;;-2.51
39959;BMP280;25639;53.634;9.880;2023-03-14T09:27:12;151751.91;;;-2.49
39959;BMP280;25639;53.634;9.880;2023-03-14T09:29:37;151719.09;;;-2.62
39959;BMP280;25639;53.634;9.880;2023-03-14T09:32:02;151722.88;;;-2.61
39959;BMP280;25639;53.634;9.880;2023-03-14T09:34:28;151725.38;;;-2.60
39959;BMP280;25639;53.634;9.880;2023-03-14T09:36:54;151701.41;;;-2.70
39959;BMP280;25639;53.634;9.880;2023-03-14T09:39:19;151686.22;;;-2.76
39959;BMP280;25639;53.634;9.880;2023-03-14T09:41:47;151649.59;;;-2.91
39959;BMP280;25639;53.634;9.880;2023-03-14T09:44:18;151457.66;;;-3.69
39959;BMP280;25639;53.634;9.880;2023-03-14T09:46:49;151356.72;;;-4.10
39959;BMP280;25639;53.634;9.880;2023-03-14T09:49:28;151287.34;;;-4.38
39959;BMP280;25639;53.634;9.880;2023-03-14T09:51:58;151249.50;;;-4.53
39959;BMP280;25639;53.634;9.880;2023-03-14T09:54:35;151190.19;;;-4.78
39959;BMP280;25639;53.634;9.880;2023-03-14T09:57:02;151196.53;;;-4.75
39959;BMP280;25639;53.634;9.880;2023-03-14T09:59:28;151196.53;;;-4.75
39959;BMP280;25639;53.634;9.880;2023-03-14T10:01:57;151158.66;;;-4.90
39959;BMP280;25639;53.634;9.880;2023-03-14T10:04:23;151133.50;;;-5.01
39959;BMP280;25639;53.634;9.880;2023-03-14T10:06:49;151098.19;;;-5.15
39959;BMP280;25639;53.634;9.880;2023-03-14T10:09:22;151061.59;;;-5.30
39959;BMP280;25639;53.634;9.880;2023-03-14T10:11:52;151069.16;;;-5.27
39959;BMP280;25639;53.634;9.880;2023-03-14T10:14:35;150994.81;;;-5.57
39959;BMP280;25639;53.634;9.880;2023-03-14T10:17:09;150889.00;;;-6.00
39959;BMP280;25639;53.634;9.880;2023-03-14T10:19:36;150853.72;;;-6.15
39959;BMP280;25639;53.634;9.880;2023-03-14T10:22:04;150827.28;;;-6.25
39959;BMP280;25639;53.634;9.880;2023-03-14T10:24:34;150780.66;;;-6.44
39959;BMP280;25639;53.634;9.880;2023-03-14T10:27:10;150776.88;;;-6.46
39959;BMP280;25639;53.634;9.880;2023-03-14T10:30:57;150781.91;;;-6.44
39959;BMP280;25639;53.634;9.880;2023-03-14T10:33:15;150706.38;;;-6.75
39959;BMP280;25639;53.634;9.880;2023-03-14T10:35:45;150635.88;;;-7.03
39959;BMP280;25639;53.634;9.880;2023-03-14T10:38:16;150595.59;;;-7.20
39959;BMP280;25639;53.634;9.880;2023-03-14T10:40:47;150614.47;;;-7.12
39959;BMP280;25639;53.634;9.880;2023-03-14T10:43:18;150565.38;;;-7.32
39959;BMP280;25639;53.634;9.880;2023-03-14T10:45:52;150600.63;;;-7.18
39959;BMP280;25639;53.634;9.880;2023-03-14T10:48:24;150633.38;;;-7.04
39959;BMP280;25639;53.634;9.880;2023-03-14T10:53:17;150589.31;;;-7.22
39959;BMP280;25639;53.634;9.880;2023-03-14T10:55:44;150576.72;;;-7.28
39959;BMP280;25639;53.634;9.880;2023-03-14T10:58:27;150572.94;;;-7.29
39959;BMP280;25639;53.634;9.880;2023-03-14T11:01:02;150556.59;;;-7.36
39959;BMP280;25639;53.634;9.880;2023-03-14T11:03:32;150551.56;;;-7.38
39959;BMP280;25639;53.634;9.880;2023-03-14T11:06:08;150611.97;;;-7.13
39959;BMP280;25639;53.634;9.880;2023-03-14T11:08:42;150561.59;;;-7.34
39959;BMP280;25639;53.634;9.880;2023-03-14T11:11:19;150615.75;;;-7.12
39959;BMP280;25639;53.634;9.880;2023-03-14T11:16:51;150544.00;;;-7.41
39959;BMP280;25639;53.634;9.880;2023-03-14T11:19:30;150498.72;;;-7.59
39959;BMP280;25639;53.634;9.880;2023-03-14T11:22:14;150532.69;;;-7.45
39959;BMP280;25639;53.634;9.880;2023-03-14T11:24:49;150551.56;;;-7.38
39959;BMP280;25639;53.634;9.880;2023-03-14T11:27:22;150570.41;;;-7.30
39959;BMP280;25639;53.634;9.880;2023-03-14T11:32:34;150644.69;;;-7.00
39959;BMP280;25639;53.634;9.880;2023-03-14T11:35:07;150619.50;;;-7.10
39959;BMP280;25639;53.634;9.880;2023-03-14T11:37:46;150599.38;;;-7.18
39959;BMP280;25639;53.634;9.880;2023-03-14T11:40:20;150609.44;;;-7.14
39959;BMP280;25639;53.634;9.880;2023-03-14T11:42:53;150664.84;;;-6.92
39959;BMP280;25639;53.634;9.880;2023-03-14T11:45:28;150651.00;;;-6.97
39959;BMP280;25639;53.634;9.880;2023-03-14T11:48:07;150706.38;;;-6.75
39959;BMP280;25639;53.634;9.880;2023-03-14T11:50:39;150688.75;;;-6.82
39959;BMP280;25639;53.634;9.880;2023-03-14T11:53:39;150676.16;;;-6.87
39959;BMP280;25639;53.634;9.880;2023-03-14T11:56:18;150668.63;;;-6.90
39959;BMP280;25639;53.634;9.880;2023-03-14T11:59:09;150692.53;;;-6.80
39959;BMP280;25639;53.634;9.880;2023-03-14T12:02:02;150678.69;;;-6.86
39959;BMP280;25639;53.634;9.880;2023-03-14T12:04:49;150713.94;;;-6.72
39959;BMP280;25639;53.634;9.880;2023-03-14T12:07:23;150705.13;;;-6.75
39959;BMP280;25639;53.634;9.880;2023-03-14T12:09:51;150696.31;;;-6.79
39959;BMP280;25639;53.634;9.880;2023-03-14T12:12:23;150681.16;;;-6.85
39959;BMP280;25639;53.634;9.880;2023-03-14T12:14:55;150671.13;;;-6.89
39959;BMP280;25639;53.634;9.880;2023-03-14T12:17:33;150695.06;;;-6.79
39959;BMP280;25639;53.634;9.880;2023-03-14T12:20:03;150713.94;;;-6.72
39959;BMP280;25639;53.634;9.880;2023-03-14T12:22:34;150725.28;;;-6.67
39959;BMP280;25639;53.634;9.880;2023-03-14T12:25:12;150771.84;;;-6.48
39959;BMP280;25639;53.634;9.880;2023-03-14T12:35:37;150707.66;;;-6.74
39959;BMP280;25639;53.634;9.880;2023-03-14T12:38:06;150729.03;;;-6.65
39959;BMP280;25639;53.634;9.880;2023-03-14T12:40:39;150759.25;;;-6.53
39959;BMP280;25639;53.634;9.880;2023-03-14T12:43:25;150798.28;;;-6.37
39959;BMP280;25639;53.634;9.880;2023-03-14T12:46:14;150807.13;;;-6.34
39959;BMP280;25639;53.634;9.880;2023-03-14T12:48:41;150798.28;;;-6.37
39959;BMP280;25639;53.634;9.880;2023-03-14T12:51:38;150759.25;;;-6.53
39959;BMP280;25639;53.634;9.880;2023-03-14T13:01:56;150832.31;;;-6.23
39959;BMP280;25639;53.634;9.880;2023-03-14T13:05:03;150803.31;;;-6.35
39959;BMP280;25639;53.634;9.880;2023-03-14T13:10:32;150838.59;;;-6.21
39959;BMP280;25639;53.634;9.880;2023-03-14T13:13:15;150861.31;;;-6.11
39959;BMP280;25639;53.634;9.880;2023-03-14T13:15:45;150839.88;;;-6.20
39959;BMP280;25639;53.634;9.880;2023-03-14T13:18:14;150843.66;;;-6.19
39959;BMP280;25639;53.634;9.880;2023-03-14T13:20:51;150842.38;;;-6.19
39959;BMP280;25639;53.634;9.880;2023-03-14T13:23:27;150873.88;;;-6.06
39959;BMP280;25639;53.634;9.880;2023-03-14T13:25:54;150842.38;;;-6.19
39959;BMP280;25639;53.634;9.880;2023-03-14T13:28:21;150802.09;;;-6.36
39959;BMP280;25639;53.634;9.880;2023-03-14T13:30:58;150829.78;;;-6.24
39959;BMP280;25639;53.634;9.880;2023-03-14T13:33:24;150817.22;;;-6.29
39959;BMP280;25639;53.634;9.880;2023-03-14T13:35:55;150820.97;;;-6.28
39959;BMP280;25639;53.634;9.880;2023-03-14T13:38:34;150802.09;;;-6.36
39959;BMP280;25639;53.634;9.880;2023-03-14T13:41:07;150848.72;;;-6.17
39959;BMP280;25639;53.634;9.880;2023-03-14T13:43:41;150854.97;;;-6.14
39959;BMP280;25639;53.634;9.880;2023-03-14T13:46:16;150875.16;;;-6.06
39959;BMP280;25639;53.634;9.880;2023-03-14T13:49:04;150867.59;;;-6.09
39959;BMP280;25639;53.634;9.880;2023-03-14T13:51:31;150861.31;;;-6.11
39959;BMP280;25639;53.634;9.880;2023-03-14T13:54:00;150798.28;;;-6.37
39959;BMP280;25639;53.634;9.880;2023-03-14T13:56:31;150790.72;;;-6.40
39959;BMP280;25639;53.634;9.880;2023-03-14T13:59:03;150759.25;;;-6.53
39959;BMP280;25639;53.634;9.880;2023-03-14T14:01:33;150698.84;;;-6.78
39959;BMP280;25639;53.634;9.880;2023-03-14T14:04:15;150681.16;;;-6.85
39959;BMP280;25639;53.634;9.880;2023-03-14T14:06:57;150706.38;;;-6.75
39959;BMP280;25639;53.634;9.880;2023-03-14T14:09:29;150737.84;;;-6.62
39959;BMP280;25639;53.634;9.880;2023-03-14T14:14:33;150802.09;;;-6.36
39959;BMP280;25639;53.634;9.880;2023-03-14T14:17:01;150770.59;;;-6.48
39959;BMP280;25639;53.634;9.880;2023-03-14T14:19:30;150758.00;;;-6.54
39959;BMP280;25639;53.634;9.880;2023-03-14T14:21:58;150747.94;;;-6.58
39959;BMP280;25639;53.634;9.880;2023-03-14T14:24:28;150721.50;;;-6.68
39959;BMP280;25639;53.634;9.880;2023-03-14T14:26:59;150696.31;;;-6.79
39959;BMP280;25639;53.634;9.880;2023-03-14T14:29:31;150676.16;;;-6.87
39959;BMP280;25639;53.634;9.880;2023-03-14T14:32:13;150677.44;;;-6.86
39959;BMP280;25639;53.634;9.880;2023-03-14T14:34:46;150664.84;;;-6.92
39959;BMP280;25639;53.634;9.880;2023-03-14T14:37:35;150649.72;;;-6.98
39959;BMP280;25639;53.634;9.880;2023-03-14T14:40:24;150666.09;;;-6.91
39959;BMP280;25639;53.634;9.880;2023-03-14T14:42:50;150676.16;;;-6.87
39959;BMP280;25639;53.634;9.880;2023-03-14T14:45:21;150722.75;;;-6.68
39959;BMP280;25639;53.634;9.880;2023-03-14T14:47:52;150759.25;;;-6.53
39959;BMP280;25639;53.634;9.880;2023-03-14T14:53:00;150701.34;;;-6.77